Semans, Canada
Current Conditions -  °F | °C
As of 9:00 AM on Thursday 23 Oct 2014 (Local Time) from CYQR Reporting Station
Broken Clouds Broken Clouds  
Wind Chill: 31°   Ceiling: 24000
Heat Index: 37°   Visibility: 15mi
Dew Point: 34°   Wind: 8mph
Humidity: 87%   Direction: 120°ESE
Pressure: 29.74"   Gusts: NA
Location:  51.4°N, 104.73°W
Report Text: CYQR 231500Z 12007KT 15SM BKN240 03/01 A2974 RMK CI7 SLP091
Loading
Personal Weather Stations






























Interactive Weather Map
Tropical Storm Tracking
New forecast layout! Learn more

10-Day Weather Forecast

Advertisements
Track Severe Weather on mobile